Lackland AFB, Texas
Current Conditions -  °F | °C
As of 10:43 AM on Thursday 30 Oct 2014 (Local Time) from KSKF Reporting Station
Overcast Overcast  
Wind Chill: 72°   Ceiling: 1400
Heat Index: 72°   Visibility: 10mi
Dew Point: 63°   Wind: 5mph
Humidity: 73%   Direction: 30°NNE
Pressure: 30.13"   Gusts: NA
Location:  29.3853°N, 98.6099°W
Report Text: KSKF 301543Z AUTO 03004KT 10SM OVC014 22/17 A3013 RMK AO2 $
Loading
Personal Weather Stations






























Interactive Weather Map
Tropical Storm Tracking
New forecast layout! Learn more

10-Day Weather Forecast

Advertisements
Track Severe Weather on mobile